Weather

Webcam

Metar / TAF

Zurich

  • LSZH 090520Z 23010KT 9999 VCSH FEW025 SCT045 BKN065 06/02 Q1008 NOSIG

  • TAF LSZH 090525Z 0906/1012 25013G25KT 9999 SHRA FEW030TCU BKN050 TX08/0912Z TN04/0923Z TN03/1006Z PROB30 TEMPO 0911/0916 29020G37KT 4000 TSGS SCT030CB BECMG 0916/0919 27010KT SCT050 BKN070 BECMG 1003/1006 NSW BECMG 1009/1012 CAVOK

Dübendorf

  • LSMD 090520Z AUTO VRB07KT 9999NDV -SHRA SCT029 BKN052 BKN059 07/02 Q1009 RMK

  • TAF LSMD 081625Z 0817/0923 23010KT 9999 SCT080 TEMPO 0818/0824 SHRA TEMPO 0817/0916 25018G30KT TEMPO 0911/0923 4500 SHRA SCT030TCU PROB30 TEMPO 0912/0916 28018G35KT 3000 TSGS SCT030CB BECMG 0916/0919 27010KT

St. Gallen

  • LSZR 090520Z 26011KT 230V290 9999 FEW050 SCT100 08/01 Q1009 NOSIG RMK A

  • TAF AMD LSZR 222054Z 2220/2224 CNL

Bern

  • LSZB 090520Z 23008KT 190V270 9999 FEW045 SCT060 BKN080 07/02 Q1010 NOSIG

  • TAF AMD TAF AMD LSZB 222054Z 2220/2224 CNL

Locarno

  • LSZL 090520Z AUTO VRB02KT 9999NDV FEW057 BKN067 BKN130 03/02 Q1010 RMK

  • TAF AMD TAF AMD LSZL 150713Z 1509/1521 VRB03KT 9999 SCT050

Samedan

  • LSZS 090520Z AUTO 16004KT 110V220 9999 FEW023 OVC090 M00/M03 Q1006

  • TAF AMD LSZS 222054Z 2220/2224 CNL

Geneve

  • LSGG 090520Z 21011KT 9999 -SHRA SCT033 BKN048 08/03 Q1012 NOSIG

  • TAF LSGG 090525Z 0906/1012 23012KT 9999 SCT020 BKN040 TX09/0915Z TN08/0906Z TN02/1006Z TEMPO 0909/0921 24015G25KT SHRA BECMG 0921/0924 VRB03KT BECMG 1003/1006 03007KT

Weather-Charts



Wind at FL50: 06:00z, 09:00z, 12:00z, 15:00z and 18:00z